createdAt,value
2023-03-23T15:57:53.612Z,19.62
2023-03-23T15:59:55.223Z,19.62
2023-03-23T16:01:57.653Z,19.62
2023-03-23T16:04:23.554Z,19.61
2023-03-23T16:06:27.597Z,19.57
2023-03-23T16:08:29.463Z,19.57
2023-03-23T16:10:31.180Z,19.57
2023-03-23T16:12:32.961Z,19.60
2023-03-23T16:14:34.493Z,19.58
2023-03-23T16:16:47.922Z,19.57
2023-03-23T16:18:51.344Z,19.57
2023-03-23T16:20:52.942Z,19.57
2023-03-23T16:22:54.846Z,19.57
2023-03-23T16:24:56.277Z,19.56
2023-03-23T16:26:57.778Z,19.55
2023-03-23T16:29:09.924Z,19.52
2023-03-23T16:31:16.360Z,19.51
2023-03-23T16:33:21.288Z,19.47
2023-03-23T16:35:22.763Z,19.44
2023-03-23T16:37:24.612Z,19.43
2023-03-23T16:39:29.130Z,19.42
2023-03-23T16:41:31.415Z,19.39
2023-03-23T16:43:32.985Z,19.38
2023-03-23T16:45:35.375Z,19.35
2023-03-23T16:47:37.468Z,19.34
2023-03-23T16:49:39.271Z,19.32
2023-03-23T16:51:42.892Z,19.31
2023-03-23T16:53:44.525Z,19.28
2023-03-23T16:55:48.292Z,19.27
2023-03-23T16:57:49.931Z,19.26
2023-03-23T16:59:51.923Z,19.23
2023-03-23T17:01:53.522Z,19.20
2023-03-23T17:03:55.805Z,19.17
2023-03-23T17:06:00.184Z,19.16
2023-03-23T17:08:02.150Z,19.14
2023-03-23T17:10:04.236Z,19.12
2023-03-23T17:12:06.241Z,19.12
2023-03-23T17:14:07.709Z,19.10
2023-03-23T17:16:09.314Z,19.09
2023-03-23T17:18:11.202Z,19.07
2023-03-23T17:20:13.623Z,19.06
2023-03-23T17:22:15.505Z,19.03
2023-03-23T17:24:17.950Z,19.02
2023-03-23T17:26:19.931Z,19.00
2023-03-23T17:28:21.635Z,18.99
2023-03-23T17:30:26.377Z,18.97
2023-03-23T17:32:28.056Z,18.94
2023-03-23T17:34:29.687Z,18.92
2023-03-23T17:36:31.379Z,18.89
2023-03-23T17:38:32.917Z,18.88
2023-03-23T17:40:34.720Z,18.87
2023-03-23T17:42:37.674Z,18.85
2023-03-23T17:44:39.778Z,18.81
2023-03-23T17:46:41.370Z,18.81
2023-03-23T17:48:42.869Z,18.79
2023-03-23T17:50:54.999Z,18.77
2023-03-23T17:52:57.143Z,18.75
2023-03-23T17:54:58.884Z,18.74
2023-03-23T17:57:06.412Z,18.72
2023-03-23T17:59:08.193Z,18.70
2023-03-23T18:01:09.869Z,18.68
2023-03-23T18:03:11.719Z,18.67
2023-03-23T18:05:14.110Z,18.65
2023-03-23T18:07:15.722Z,18.64
2023-03-23T18:09:17.245Z,18.62
2023-03-23T18:11:19.048Z,18.61
2023-03-23T18:13:21.848Z,18.59
2023-03-23T18:15:31.696Z,18.57
2023-03-23T18:17:36.141Z,18.55
2023-03-23T18:19:37.821Z,18.54
2023-03-23T18:21:39.395Z,18.52
2023-03-23T18:23:49.321Z,18.49
2023-03-23T18:25:55.257Z,18.46
2023-03-23T18:28:06.861Z,18.46
2023-03-23T18:30:09.778Z,18.42
2023-03-23T18:32:11.789Z,18.39
2023-03-23T18:34:13.582Z,18.37
2023-03-23T18:36:18.119Z,18.35
2023-03-23T18:38:19.835Z,18.32
2023-03-23T18:40:24.160Z,18.29
2023-03-23T18:42:29.375Z,18.27
2023-03-23T18:44:31.218Z,18.25
2023-03-23T18:46:33.467Z,18.24
2023-03-23T18:48:36.111Z,18.21
2023-03-23T18:50:37.872Z,18.21
2023-03-23T18:52:39.406Z,18.20
2023-03-23T18:54:46.789Z,18.20
2023-03-23T18:56:50.425Z,18.19
2023-03-23T18:58:53.396Z,18.18
2023-03-23T19:01:42.006Z,18.18
2023-03-23T19:03:45.886Z,18.16
2023-03-23T19:05:56.075Z,18.16
2023-03-23T19:07:58.042Z,18.16
2023-03-23T19:09:59.662Z,18.16
2023-03-23T19:12:01.239Z,18.17
2023-03-23T19:14:03.927Z,18.17
2023-03-23T19:16:14.437Z,18.16
2023-03-23T19:18:16.331Z,18.15
2023-03-23T19:20:30.231Z,18.16
2023-03-23T19:22:40.495Z,18.15
2023-03-23T19:24:42.338Z,18.15
2023-03-23T19:26:46.482Z,18.13
2023-03-23T19:29:23.378Z,18.13
2023-03-23T19:31:11.193Z,18.08
2023-03-23T19:33:13.595Z,18.09
2023-03-23T19:35:16.679Z,18.08
2023-03-23T19:37:20.386Z,18.07
2023-03-23T19:39:29.226Z,18.06
2023-03-23T19:41:31.710Z,18.05
2023-03-23T19:43:33.733Z,18.02
2023-03-23T19:45:36.333Z,18.00
2023-03-23T19:47:40.476Z,17.99
2023-03-23T19:49:42.023Z,17.96
2023-03-23T19:51:43.644Z,17.95
2023-03-23T19:53:46.087Z,17.92
2023-03-23T19:55:51.213Z,17.90
2023-03-23T19:57:53.160Z,17.88
2023-03-23T19:59:54.891Z,17.85
2023-03-23T20:01:58.924Z,17.84
2023-03-23T20:04:04.719Z,17.82
2023-03-23T20:06:12.264Z,17.80
2023-03-23T20:08:14.898Z,17.77
2023-03-23T20:10:19.652Z,17.73
2023-03-23T20:12:21.902Z,17.72
2023-03-23T20:14:23.681Z,17.70
2023-03-23T20:16:25.626Z,17.68
2023-03-23T20:18:29.177Z,17.66
2023-03-23T20:20:31.982Z,17.64
2023-03-23T20:22:34.501Z,17.60
2023-03-23T20:24:38.118Z,17.60
2023-03-23T20:26:42.436Z,17.58
2023-03-23T20:28:47.707Z,17.56
2023-03-23T20:31:23.247Z,17.53
2023-03-23T20:33:26.526Z,17.50
2023-03-23T20:35:29.396Z,17.47
2023-03-23T20:37:32.053Z,17.45
2023-03-23T20:39:34.121Z,17.45
2023-03-23T20:41:36.777Z,17.43
2023-03-23T20:43:43.515Z,17.41
2023-03-23T20:45:45.751Z,17.39
2023-03-23T20:47:54.049Z,17.37
2023-03-23T20:49:56.101Z,17.36
2023-03-23T20:51:58.580Z,17.34
2023-03-23T20:54:02.038Z,17.33
2023-03-23T20:56:08.579Z,17.30
2023-03-23T20:58:12.246Z,17.28
2023-03-23T21:00:16.195Z,17.26
2023-03-23T21:02:19.639Z,17.25
2023-03-23T21:04:27.744Z,17.24
2023-03-23T21:06:31.013Z,17.22
2023-03-23T21:08:34.877Z,17.21
2023-03-23T21:10:37.717Z,17.21
2023-03-23T21:12:39.288Z,17.15
2023-03-23T21:14:41.347Z,17.17
2023-03-23T21:16:43.685Z,17.18
2023-03-23T21:18:45.991Z,17.17
2023-03-23T21:20:50.556Z,17.18
2023-03-23T21:22:52.388Z,17.18
2023-03-23T21:24:53.981Z,17.18
2023-03-23T21:26:58.111Z,17.18
2023-03-23T21:29:00.454Z,17.15
2023-03-23T21:31:04.946Z,17.15
2023-03-23T21:33:09.140Z,17.14
2023-03-23T21:35:11.172Z,17.15
2023-03-23T21:37:16.223Z,17.14
2023-03-23T21:39:19.344Z,17.12
2023-03-23T21:41:22.249Z,17.11
2023-03-23T21:43:27.411Z,17.11
2023-03-23T21:45:29.394Z,17.09
2023-03-23T21:47:34.053Z,17.10
2023-03-23T21:49:35.775Z,17.09
2023-03-23T21:51:43.300Z,17.11
2023-03-23T21:53:46.970Z,17.11
2023-03-23T21:55:53.003Z,17.11
2023-03-23T21:57:54.444Z,17.13
2023-03-23T21:59:56.410Z,17.11
2023-03-23T22:01:59.872Z,17.13
2023-03-23T22:04:04.826Z,17.10
2023-03-23T22:06:13.215Z,17.10
2023-03-23T22:08:14.747Z,17.09
2023-03-23T22:10:19.059Z,17.09
2023-03-23T22:12:21.739Z,17.11
2023-03-23T22:14:23.519Z,17.11
2023-03-23T22:16:26.344Z,17.09
2023-03-23T22:18:28.652Z,17.11
2023-03-23T22:20:30.909Z,17.12
2023-03-23T22:22:32.750Z,17.11
2023-03-23T22:24:34.390Z,17.11
2023-03-23T22:26:36.391Z,17.11
2023-03-23T22:28:39.170Z,17.11
2023-03-23T22:30:40.689Z,17.09
2023-03-23T22:32:42.544Z,17.09
2023-03-23T22:34:44.305Z,17.09
2023-03-23T22:36:46.159Z,17.08
2023-03-23T22:38:48.245Z,17.07
2023-03-23T22:40:57.956Z,17.08
2023-03-23T22:42:59.420Z,17.07
2023-03-23T22:45:01.032Z,17.09
2023-03-23T22:47:02.673Z,17.10
2023-03-23T22:49:04.323Z,17.10
2023-03-23T22:51:06.115Z,17.09
2023-03-23T22:53:15.210Z,17.11
2023-03-23T22:55:16.848Z,17.09
2023-03-23T22:57:18.672Z,17.09
2023-03-23T22:59:20.224Z,17.11
2023-03-23T23:01:23.150Z,17.07
2023-03-23T23:03:25.711Z,17.09
2023-03-23T23:05:27.157Z,17.06
2023-03-23T23:07:28.789Z,17.06
2023-03-23T23:09:30.265Z,17.05
2023-03-23T23:11:31.850Z,17.04
2023-03-23T23:13:33.703Z,17.04
2023-03-23T23:15:36.047Z,17.03
2023-03-23T23:17:38.691Z,17.04
2023-03-23T23:19:40.268Z,17.04
2023-03-23T23:21:41.770Z,17.05
2023-03-23T23:23:43.370Z,17.04
2023-03-23T23:25:51.637Z,17.04
2023-03-23T23:27:53.246Z,17.02
2023-03-23T23:29:54.831Z,17.01
2023-03-23T23:31:56.418Z,17.02
2023-03-23T23:34:02.177Z,17.03
2023-03-23T23:36:04.100Z,17.01
2023-03-23T23:38:06.993Z,16.99
2023-03-23T23:40:09.520Z,16.98
2023-03-23T23:42:11.564Z,16.99
2023-03-23T23:44:13.332Z,16.98
2023-03-23T23:46:15.067Z,16.96
2023-03-23T23:48:16.846Z,16.96
2023-03-23T23:50:18.998Z,16.94
2023-03-23T23:52:21.014Z,16.95
2023-03-23T23:54:22.662Z,16.93
2023-03-23T23:56:25.322Z,16.94
2023-03-23T23:58:26.798Z,16.93
